sensor_id;sensor_type;location;lat;lon;timestamp;P1;durP1;ratioP1;P2;durP2;ratioP2
2662;SDS011;49701;48.072;7.800;2023-07-24T00:01:09;9.55;;;6.60;;
2662;SDS011;49701;48.072;7.800;2023-07-24T00:03:34;9.65;;;6.43;;
2662;SDS011;49701;48.072;7.800;2023-07-24T00:06:00;9.40;;;6.45;;
2662;SDS011;49701;48.072;7.800;2023-07-24T00:08:26;10.43;;;6.55;;
2662;SDS011;49701;48.072;7.800;2023-07-24T00:10:52;9.38;;;6.32;;
2662;SDS011;49701;48.072;7.800;2023-07-24T00:13:17;10.32;;;6.63;;
2662;SDS011;49701;48.072;7.800;2023-07-24T00:15:43;9.07;;;6.32;;
2662;SDS011;49701;48.072;7.800;2023-07-24T00:18:09;13.30;;;7.00;;
2662;SDS011;49701;48.072;7.800;2023-07-24T00:20:34;9.43;;;6.88;;
2662;SDS011;49701;48.072;7.800;2023-07-24T00:23:00;11.07;;;6.25;;
2662;SDS011;49701;48.072;7.800;2023-07-24T00:25:26;8.88;;;6.03;;
2662;SDS011;49701;48.072;7.800;2023-07-24T00:27:51;11.25;;;6.80;;
2662;SDS011;49701;48.072;7.800;2023-07-24T00:30:17;9.85;;;6.45;;
2662;SDS011;49701;48.072;7.800;2023-07-24T00:32:43;10.70;;;6.82;;
2662;SDS011;49701;48.072;7.800;2023-07-24T00:35:08;9.80;;;6.65;;
2662;SDS011;49701;48.072;7.800;2023-07-24T00:37:34;9.55;;;6.43;;
2662;SDS011;49701;48.072;7.800;2023-07-24T00:40:00;11.95;;;7.05;;
2662;SDS011;49701;48.072;7.800;2023-07-24T00:42:27;12.70;;;6.47;;
2662;SDS011;49701;48.072;7.800;2023-07-24T00:44:52;9.93;;;6.78;;
2662;SDS011;49701;48.072;7.800;2023-07-24T00:47:18;9.50;;;6.07;;
2662;SDS011;49701;48.072;7.800;2023-07-24T00:49:45;10.00;;;6.38;;
2662;SDS011;49701;48.072;7.800;2023-07-24T00:52:11;10.27;;;6.30;;
2662;SDS011;49701;48.072;7.800;2023-07-24T00:54:38;9.98;;;6.60;;
2662;SDS011;49701;48.072;7.800;2023-07-24T00:57:04;11.70;;;7.13;;
2662;SDS011;49701;48.072;7.800;2023-07-24T00:59:31;9.07;;;6.35;;
2662;SDS011;49701;48.072;7.800;2023-07-24T01:01:57;9.70;;;6.50;;
2662;SDS011;49701;48.072;7.800;2023-07-24T01:04:23;8.73;;;6.03;;
2662;SDS011;49701;48.072;7.800;2023-07-24T01:06:50;10.43;;;6.40;;
2662;SDS011;49701;48.072;7.800;2023-07-24T01:09:16;10.35;;;6.97;;
2662;SDS011;49701;48.072;7.800;2023-07-24T01:11:56;8.55;;;6.15;;
2662;SDS011;49701;48.072;7.800;2023-07-24T01:14:44;11.18;;;6.70;;
2662;SDS011;49701;48.072;7.800;2023-07-24T01:17:14;7.90;;;5.90;;
2662;SDS011;49701;48.072;7.800;2023-07-24T01:19:46;12.45;;;6.50;;
2662;SDS011;49701;48.072;7.800;2023-07-24T01:27:42;12.70;;;6.78;;
2662;SDS011;49701;48.072;7.800;2023-07-24T01:30:08;10.93;;;6.28;;
2662;SDS011;49701;48.072;7.800;2023-07-24T01:32:35;10.95;;;6.50;;
2662;SDS011;49701;48.072;7.800;2023-07-24T01:35:00;10.10;;;7.15;;
2662;SDS011;49701;48.072;7.800;2023-07-24T01:37:27;9.82;;;6.95;;
2662;SDS011;49701;48.072;7.800;2023-07-24T01:39:53;9.77;;;6.32;;
2662;SDS011;49701;48.072;7.800;2023-07-24T01:42:22;15.10;;;6.57;;
2662;SDS011;49701;48.072;7.800;2023-07-24T01:44:55;10.52;;;6.28;;
2662;SDS011;49701;48.072;7.800;2023-07-24T01:47:21;10.95;;;6.90;;
2662;SDS011;49701;48.072;7.800;2023-07-24T01:49:47;11.30;;;7.00;;
2662;SDS011;49701;48.072;7.800;2023-07-24T01:52:13;10.55;;;6.72;;
2662;SDS011;49701;48.072;7.800;2023-07-24T01:54:39;9.57;;;6.60;;
2662;SDS011;49701;48.072;7.800;2023-07-24T01:57:05;11.40;;;7.03;;
2662;SDS011;49701;48.072;7.800;2023-07-24T01:59:31;10.85;;;6.72;;
2662;SDS011;49701;48.072;7.800;2023-07-24T02:01:56;10.63;;;7.38;;
2662;SDS011;49701;48.072;7.800;2023-07-24T02:04:22;11.88;;;7.13;;
2662;SDS011;49701;48.072;7.800;2023-07-24T02:06:48;9.85;;;6.63;;
2662;SDS011;49701;48.072;7.800;2023-07-24T02:09:15;9.43;;;6.57;;
2662;SDS011;49701;48.072;7.800;2023-07-24T02:11:43;10.98;;;6.35;;
2662;SDS011;49701;48.072;7.800;2023-07-24T02:14:11;10.07;;;6.65;;
2662;SDS011;49701;48.072;7.800;2023-07-24T02:16:38;12.23;;;7.00;;
2662;SDS011;49701;48.072;7.800;2023-07-24T02:19:03;12.48;;;7.20;;
2662;SDS011;49701;48.072;7.800;2023-07-24T02:21:30;10.43;;;6.53;;
2662;SDS011;49701;48.072;7.800;2023-07-24T02:23:55;10.63;;;7.18;;
2662;SDS011;49701;48.072;7.800;2023-07-24T02:26:21;11.65;;;6.85;;
2662;SDS011;49701;48.072;7.800;2023-07-24T02:28:47;11.38;;;7.22;;
2662;SDS011;49701;48.072;7.800;2023-07-24T02:31:13;12.60;;;7.45;;
2662;SDS011;49701;48.072;7.800;2023-07-24T02:33:38;10.60;;;7.57;;
2662;SDS011;49701;48.072;7.800;2023-07-24T02:36:05;10.88;;;7.18;;
2662;SDS011;49701;48.072;7.800;2023-07-24T02:38:33;11.93;;;7.40;;
2662;SDS011;49701;48.072;7.800;2023-07-24T02:40:58;10.88;;;7.28;;
2662;SDS011;49701;48.072;7.800;2023-07-24T02:43:24;11.75;;;7.75;;
2662;SDS011;49701;48.072;7.800;2023-07-24T02:45:50;10.73;;;7.55;;
2662;SDS011;49701;48.072;7.800;2023-07-24T02:48:15;11.20;;;7.80;;
2662;SDS011;49701;48.072;7.800;2023-07-24T02:50:41;12.43;;;7.40;;
2662;SDS011;49701;48.072;7.800;2023-07-24T02:53:07;10.60;;;7.28;;
2662;SDS011;49701;48.072;7.800;2023-07-24T02:55:32;11.23;;;7.38;;
2662;SDS011;49701;48.072;7.800;2023-07-24T02:57:58;11.57;;;7.20;;
2662;SDS011;49701;48.072;7.800;2023-07-24T03:00:23;10.82;;;7.20;;
2662;SDS011;49701;48.072;7.800;2023-07-24T03:02:50;12.35;;;7.60;;
2662;SDS011;49701;48.072;7.800;2023-07-24T03:05:16;11.70;;;7.20;;
2662;SDS011;49701;48.072;7.800;2023-07-24T03:07:43;11.30;;;7.05;;
2662;SDS011;49701;48.072;7.800;2023-07-24T03:10:09;8.85;;;6.43;;
2662;SDS011;49701;48.072;7.800;2023-07-24T03:12:34;12.10;;;7.35;;
2662;SDS011;49701;48.072;7.800;2023-07-24T03:15:01;10.20;;;6.78;;
2662;SDS011;49701;48.072;7.800;2023-07-24T03:17:27;11.68;;;7.13;;
2662;SDS011;49701;48.072;7.800;2023-07-24T03:19:54;11.38;;;7.07;;
2662;SDS011;49701;48.072;7.800;2023-07-24T03:22:20;10.63;;;6.65;;
2662;SDS011;49701;48.072;7.800;2023-07-24T03:24:46;10.77;;;6.93;;
2662;SDS011;49701;48.072;7.800;2023-07-24T03:27:11;14.57;;;7.28;;
2662;SDS011;49701;48.072;7.800;2023-07-24T03:29:38;12.18;;;7.32;;
2662;SDS011;49701;48.072;7.800;2023-07-24T03:32:06;11.70;;;6.70;;
2662;SDS011;49701;48.072;7.800;2023-07-24T03:34:32;12.20;;;6.63;;
2662;SDS011;49701;48.072;7.800;2023-07-24T03:36:58;10.35;;;6.70;;
2662;SDS011;49701;48.072;7.800;2023-07-24T03:39:23;11.30;;;7.10;;
2662;SDS011;49701;48.072;7.800;2023-07-24T03:41:50;12.30;;;7.15;;
2662;SDS011;49701;48.072;7.800;2023-07-24T03:44:16;12.07;;;7.35;;
2662;SDS011;49701;48.072;7.800;2023-07-24T03:46:42;12.10;;;7.05;;
2662;SDS011;49701;48.072;7.800;2023-07-24T03:49:07;9.05;;;6.72;;
2662;SDS011;49701;48.072;7.800;2023-07-24T03:51:33;10.85;;;7.05;;
2662;SDS011;49701;48.072;7.800;2023-07-24T03:53:58;14.75;;;7.28;;
2662;SDS011;49701;48.072;7.800;2023-07-24T03:56:24;9.85;;;6.80;;
2662;SDS011;49701;48.072;7.800;2023-07-24T03:58:50;11.98;;;6.70;;
2662;SDS011;49701;48.072;7.800;2023-07-24T04:01:16;11.25;;;7.22;;
2662;SDS011;49701;48.072;7.800;2023-07-24T04:03:42;11.07;;;7.60;;
2662;SDS011;49701;48.072;7.800;2023-07-24T04:06:08;14.45;;;8.23;;
2662;SDS011;49701;48.072;7.800;2023-07-24T04:08:34;11.85;;;7.45;;
2662;SDS011;49701;48.072;7.800;2023-07-24T04:11:00;12.38;;;7.78;;
2662;SDS011;49701;48.072;7.800;2023-07-24T04:13:26;11.77;;;7.63;;
2662;SDS011;49701;48.072;7.800;2023-07-24T04:15:51;12.02;;;7.53;;
2662;SDS011;49701;48.072;7.800;2023-07-24T04:18:17;14.50;;;8.43;;
2662;SDS011;49701;48.072;7.800;2023-07-24T04:20:43;11.20;;;7.75;;
2662;SDS011;49701;48.072;7.800;2023-07-24T04:23:08;15.10;;;8.10;;
2662;SDS011;49701;48.072;7.800;2023-07-24T04:25:34;12.85;;;7.43;;
2662;SDS011;49701;48.072;7.800;2023-07-24T04:28:00;13.70;;;8.02;;
2662;SDS011;49701;48.072;7.800;2023-07-24T04:30:25;13.43;;;8.02;;
2662;SDS011;49701;48.072;7.800;2023-07-24T04:32:51;14.18;;;8.13;;
2662;SDS011;49701;48.072;7.800;2023-07-24T04:35:17;14.40;;;8.23;;
2662;SDS011;49701;48.072;7.800;2023-07-24T04:37:42;12.82;;;8.43;;
2662;SDS011;49701;48.072;7.800;2023-07-24T04:40:08;14.15;;;7.57;;
2662;SDS011;49701;48.072;7.800;2023-07-24T04:42:35;9.82;;;7.03;;
2662;SDS011;49701;48.072;7.800;2023-07-24T04:45:01;13.07;;;8.52;;
2662;SDS011;49701;48.072;7.800;2023-07-24T04:47:26;13.48;;;8.25;;
2662;SDS011;49701;48.072;7.800;2023-07-24T04:49:52;14.05;;;8.70;;
2662;SDS011;49701;48.072;7.800;2023-07-24T04:52:18;13.90;;;8.52;;
2662;SDS011;49701;48.072;7.800;2023-07-24T04:54:44;13.13;;;8.05;;
2662;SDS011;49701;48.072;7.800;2023-07-24T04:57:09;15.18;;;8.00;;
2662;SDS011;49701;48.072;7.800;2023-07-24T04:59:35;16.88;;;8.40;;
2662;SDS011;49701;48.072;7.800;2023-07-24T05:02:01;12.77;;;8.15;;
2662;SDS011;49701;48.072;7.800;2023-07-24T05:04:26;13.27;;;7.93;;
2662;SDS011;49701;48.072;7.800;2023-07-24T05:06:52;12.55;;;8.43;;
2662;SDS011;49701;48.072;7.800;2023-07-24T05:09:18;14.02;;;8.70;;
2662;SDS011;49701;48.072;7.800;2023-07-24T05:11:43;12.05;;;8.43;;
2662;SDS011;49701;48.072;7.800;2023-07-24T05:14:10;13.45;;;7.63;;
2662;SDS011;49701;48.072;7.800;2023-07-24T05:16:36;14.52;;;7.85;;
2662;SDS011;49701;48.072;7.800;2023-07-24T05:19:02;14.27;;;8.77;;
2662;SDS011;49701;48.072;7.800;2023-07-24T05:21:27;15.13;;;8.38;;
2662;SDS011;49701;48.072;7.800;2023-07-24T05:23:53;12.40;;;7.63;;
2662;SDS011;49701;48.072;7.800;2023-07-24T05:26:19;14.35;;;7.97;;
2662;SDS011;49701;48.072;7.800;2023-07-24T05:28:47;12.27;;;8.18;;
2662;SDS011;49701;48.072;7.800;2023-07-24T05:31:12;11.88;;;7.18;;
2662;SDS011;49701;48.072;7.800;2023-07-24T05:33:38;11.32;;;6.88;;
2662;SDS011;49701;48.072;7.800;2023-07-24T05:36:04;14.95;;;8.13;;
2662;SDS011;49701;48.072;7.800;2023-07-24T05:38:30;13.35;;;8.25;;
2662;SDS011;49701;48.072;7.800;2023-07-24T05:41:00;13.50;;;8.15;;
2662;SDS011;49701;48.072;7.800;2023-07-24T05:43:27;13.30;;;7.88;;
2662;SDS011;49701;48.072;7.800;2023-07-24T05:45:54;11.55;;;8.18;;
2662;SDS011;49701;48.072;7.800;2023-07-24T05:48:21;13.15;;;8.27;;
2662;SDS011;49701;48.072;7.800;2023-07-24T05:50:47;12.18;;;8.15;;
2662;SDS011;49701;48.072;7.800;2023-07-24T05:53:14;10.90;;;7.63;;
2662;SDS011;49701;48.072;7.800;2023-07-24T05:55:40;12.10;;;7.28;;
2662;SDS011;49701;48.072;7.800;2023-07-24T05:58:05;12.63;;;7.88;;
2662;SDS011;49701;48.072;7.800;2023-07-24T06:00:31;12.82;;;7.03;;
2662;SDS011;49701;48.072;7.800;2023-07-24T06:02:57;14.40;;;7.78;;
2662;SDS011;49701;48.072;7.800;2023-07-24T06:05:22;14.43;;;8.38;;
2662;SDS011;49701;48.072;7.800;2023-07-24T06:07:48;11.75;;;8.10;;
2662;SDS011;49701;48.072;7.800;2023-07-24T06:10:14;11.75;;;8.57;;
2662;SDS011;49701;48.072;7.800;2023-07-24T06:12:39;12.35;;;7.35;;
2662;SDS011;49701;48.072;7.800;2023-07-24T06:15:05;12.18;;;7.47;;
2662;SDS011;49701;48.072;7.800;2023-07-24T06:17:32;11.82;;;8.15;;
2662;SDS011;49701;48.072;7.800;2023-07-24T06:19:58;13.02;;;8.18;;
2662;SDS011;49701;48.072;7.800;2023-07-24T06:22:23;11.75;;;8.07;;
2662;SDS011;49701;48.072;7.800;2023-07-24T06:24:49;13.75;;;8.20;;
2662;SDS011;49701;48.072;7.800;2023-07-24T06:27:15;11.45;;;7.75;;
2662;SDS011;49701;48.072;7.800;2023-07-24T06:29:41;11.07;;;6.93;;
2662;SDS011;49701;48.072;7.800;2023-07-24T06:32:07;7.25;;;5.40;;
2662;SDS011;49701;48.072;7.800;2023-07-24T06:34:33;12.80;;;5.22;;
2662;SDS011;49701;48.072;7.800;2023-07-24T06:36:59;9.57;;;4.63;;
2662;SDS011;49701;48.072;7.800;2023-07-24T06:39:25;7.63;;;4.75;;
2662;SDS011;49701;48.072;7.800;2023-07-24T06:41:54;5.90;;;3.78;;
2662;SDS011;49701;48.072;7.800;2023-07-24T06:44:21;9.77;;;4.07;;
2662;SDS011;49701;48.072;7.800;2023-07-24T06:46:47;8.63;;;4.20;;
2662;SDS011;49701;48.072;7.800;2023-07-24T06:49:12;8.93;;;4.60;;
2662;SDS011;49701;48.072;7.800;2023-07-24T06:51:38;8.60;;;4.55;;
2662;SDS011;49701;48.072;7.800;2023-07-24T06:54:04;9.02;;;4.40;;
2662;SDS011;49701;48.072;7.800;2023-07-24T06:56:31;7.55;;;4.10;;
2662;SDS011;49701;48.072;7.800;2023-07-24T06:58:56;8.85;;;4.97;;
2662;SDS011;49701;48.072;7.800;2023-07-24T07:01:22;9.38;;;4.40;;
2662;SDS011;49701;48.072;7.800;2023-07-24T07:03:48;8.27;;;4.50;;
2662;SDS011;49701;48.072;7.800;2023-07-24T07:06:13;8.18;;;4.13;;
2662;SDS011;49701;48.072;7.800;2023-07-24T07:08:39;7.38;;;4.43;;
2662;SDS011;49701;48.072;7.800;2023-07-24T07:11:05;10.13;;;4.65;;
2662;SDS011;49701;48.072;7.800;2023-07-24T07:13:30;9.00;;;4.72;;
2662;SDS011;49701;48.072;7.800;2023-07-24T07:15:56;9.70;;;4.60;;
2662;SDS011;49701;48.072;7.800;2023-07-24T07:18:22;5.85;;;4.00;;
2662;SDS011;49701;48.072;7.800;2023-07-24T07:20:51;8.80;;;4.60;;
2662;SDS011;49701;48.072;7.800;2023-07-24T07:23:18;8.15;;;4.82;;
2662;SDS011;49701;48.072;7.800;2023-07-24T07:25:44;7.28;;;4.63;;
2662;SDS011;49701;48.072;7.800;2023-07-24T07:28:14;9.18;;;4.60;;
2662;SDS011;49701;48.072;7.800;2023-07-24T07:30:41;7.22;;;4.28;;
2662;SDS011;49701;48.072;7.800;2023-07-24T07:33:07;8.80;;;4.85;;
2662;SDS011;49701;48.072;7.800;2023-07-24T07:35:34;8.63;;;4.88;;
2662;SDS011;49701;48.072;7.800;2023-07-24T07:38:00;7.65;;;4.38;;
2662;SDS011;49701;48.072;7.800;2023-07-24T07:40:26;7.57;;;4.43;;
2662;SDS011;49701;48.072;7.800;2023-07-24T07:42:55;8.35;;;5.15;;
2662;SDS011;49701;48.072;7.800;2023-07-24T07:45:42;7.80;;;4.70;;
2662;SDS011;49701;48.072;7.800;2023-07-24T07:48:08;10.13;;;5.15;;
2662;SDS011;49701;48.072;7.800;2023-07-24T07:50:39;8.52;;;5.28;;
2662;SDS011;49701;48.072;7.800;2023-07-24T07:53:05;10.18;;;5.28;;
2662;SDS011;49701;48.072;7.800;2023-07-24T07:55:31;9.48;;;4.88;;
2662;SDS011;49701;48.072;7.800;2023-07-24T07:57:56;6.13;;;4.63;;
2662;SDS011;49701;48.072;7.800;2023-07-24T08:00:22;9.10;;;4.03;;
2662;SDS011;49701;48.072;7.800;2023-07-24T08:02:48;7.18;;;4.60;;
2662;SDS011;49701;48.072;7.800;2023-07-24T08:05:14;7.65;;;4.50;;
2662;SDS011;49701;48.072;7.800;2023-07-24T08:07:40;7.70;;;5.05;;
2662;SDS011;49701;48.072;7.800;2023-07-24T08:10:06;9.60;;;4.75;;
2662;SDS011;49701;48.072;7.800;2023-07-24T08:12:32;7.65;;;4.45;;
2662;SDS011;49701;48.072;7.800;2023-07-24T08:14:58;15.70;;;8.55;;
2662;SDS011;49701;48.072;7.800;2023-07-24T08:17:24;8.05;;;5.85;;
2662;SDS011;49701;48.072;7.800;2023-07-24T08:19:53;11.07;;;4.55;;
2662;SDS011;49701;48.072;7.800;2023-07-24T08:22:18;8.30;;;5.07;;
2662;SDS011;49701;48.072;7.800;2023-07-24T08:24:44;8.65;;;5.72;;
2662;SDS011;49701;48.072;7.800;2023-07-24T08:27:10;10.30;;;5.82;;
2662;SDS011;49701;48.072;7.800;2023-07-24T08:29:36;8.48;;;4.90;;
2662;SDS011;49701;48.072;7.800;2023-07-24T08:32:03;8.77;;;5.57;;
2662;SDS011;49701;48.072;7.800;2023-07-24T08:34:29;9.05;;;5.22;;
2662;SDS011;49701;48.072;7.800;2023-07-24T08:36:55;7.93;;;5.20;;
2662;SDS011;49701;48.072;7.800;2023-07-24T08:39:21;7.18;;;4.75;;
2662;SDS011;49701;48.072;7.800;2023-07-24T08:41:47;7.30;;;4.65;;
2662;SDS011;49701;48.072;7.800;2023-07-24T08:44:12;8.82;;;5.32;;
2662;SDS011;49701;48.072;7.800;2023-07-24T08:46:39;8.30;;;5.50;;
2662;SDS011;49701;48.072;7.800;2023-07-24T08:49:06;8.82;;;4.90;;
2662;SDS011;49701;48.072;7.800;2023-07-24T08:51:37;6.47;;;4.88;;
2662;SDS011;49701;48.072;7.800;2023-07-24T08:54:03;17.48;;;10.43;;
2662;SDS011;49701;48.072;7.800;2023-07-24T08:56:30;21.90;;;13.07;;
2662;SDS011;49701;48.072;7.800;2023-07-24T08:58:56;10.63;;;6.65;;
2662;SDS011;49701;48.072;7.800;2023-07-24T09:01:21;11.30;;;6.82;;
2662;SDS011;49701;48.072;7.800;2023-07-24T09:03:47;22.50;;;11.07;;
2662;SDS011;49701;48.072;7.800;2023-07-24T09:06:13;18.13;;;10.30;;
2662;SDS011;49701;48.072;7.800;2023-07-24T09:08:39;11.45;;;7.07;;
2662;SDS011;49701;48.072;7.800;2023-07-24T09:11:07;10.48;;;6.32;;
2662;SDS011;49701;48.072;7.800;2023-07-24T09:13:35;11.68;;;6.40;;
2662;SDS011;49701;48.072;7.800;2023-07-24T09:16:02;10.90;;;5.65;;
2662;SDS011;49701;48.072;7.800;2023-07-24T09:18:38;9.57;;;5.88;;
2662;SDS011;49701;48.072;7.800;2023-07-24T09:21:05;9.98;;;5.68;;
2662;SDS011;49701;48.072;7.800;2023-07-24T09:23:31;8.48;;;5.80;;
2662;SDS011;49701;48.072;7.800;2023-07-24T09:25:56;9.98;;;5.50;;
2662;SDS011;49701;48.072;7.800;2023-07-24T09:28:22;9.55;;;5.82;;
2662;SDS011;49701;48.072;7.800;2023-07-24T09:30:52;8.98;;;5.57;;
2662;SDS011;49701;48.072;7.800;2023-07-24T09:33:19;10.35;;;5.95;;
2662;SDS011;49701;48.072;7.800;2023-07-24T09:35:44;10.57;;;5.80;;
2662;SDS011;49701;48.072;7.800;2023-07-24T09:38:10;10.57;;;6.03;;
2662;SDS011;49701;48.072;7.800;2023-07-24T09:40:37;11.45;;;5.50;;
2662;SDS011;49701;48.072;7.800;2023-07-24T09:43:13;9.82;;;5.60;;
2662;SDS011;49701;48.072;7.800;2023-07-24T09:45:43;10.68;;;5.75;;
2662;SDS011;49701;48.072;7.800;2023-07-24T09:48:09;12.95;;;6.43;;
2662;SDS011;49701;48.072;7.800;2023-07-24T09:50:39;11.55;;;6.43;;
2662;SDS011;49701;48.072;7.800;2023-07-24T09:53:06;8.82;;;5.55;;
2662;SDS011;49701;48.072;7.800;2023-07-24T09:55:43;8.45;;;5.70;;
2662;SDS011;49701;48.072;7.800;2023-07-24T09:58:20;10.80;;;6.25;;
2662;SDS011;49701;48.072;7.800;2023-07-24T10:00:47;8.45;;;5.72;;
2662;SDS011;49701;48.072;7.800;2023-07-24T10:03:14;12.00;;;5.43;;
2662;SDS011;49701;48.072;7.800;2023-07-24T10:05:40;11.05;;;5.95;;
2662;SDS011;49701;48.072;7.800;2023-07-24T10:08:08;11.18;;;6.60;;
2662;SDS011;49701;48.072;7.800;2023-07-24T10:10:35;10.88;;;5.45;;
2662;SDS011;49701;48.072;7.800;2023-07-24T10:13:03;7.25;;;4.65;;
2662;SDS011;49701;48.072;7.800;2023-07-24T10:15:29;8.90;;;4.22;;
2662;SDS011;49701;48.072;7.800;2023-07-24T10:18:06;8.70;;;4.32;;
2662;SDS011;49701;48.072;7.800;2023-07-24T10:20:33;7.55;;;3.50;;
2662;SDS011;49701;48.072;7.800;2023-07-24T10:23:03;8.60;;;3.60;;
2662;SDS011;49701;48.072;7.800;2023-07-24T10:48:24;5.13;;;3.08;;
2662;SDS011;49701;48.072;7.800;2023-07-24T10:50:51;6.90;;;3.40;;
2662;SDS011;49701;48.072;7.800;2023-07-24T10:53:18;5.20;;;3.40;;
2662;SDS011;49701;48.072;7.800;2023-07-24T10:55:45;5.22;;;3.47;;
2662;SDS011;49701;48.072;7.800;2023-07-24T10:58:12;4.15;;;3.28;;
2662;SDS011;49701;48.072;7.800;2023-07-24T11:00:39;5.93;;;3.05;;
2662;SDS011;49701;48.072;7.800;2023-07-24T11:03:12;4.13;;;3.25;;
2662;SDS011;49701;48.072;7.800;2023-07-24T11:05:43;5.40;;;3.55;;
2662;SDS011;49701;48.072;7.800;2023-07-24T11:10:46;4.88;;;3.40;;
2662;SDS011;49701;48.072;7.800;2023-07-24T11:13:17;5.93;;;3.70;;
2662;SDS011;49701;48.072;7.800;2023-07-24T11:15:47;5.00;;;2.97;;
2662;SDS011;49701;48.072;7.800;2023-07-24T11:18:14;5.38;;;2.80;;
2662;SDS011;49701;48.072;7.800;2023-07-24T11:23:10;4.60;;;3.03;;
2662;SDS011;49701;48.072;7.800;2023-07-24T11:25:36;3.50;;;2.50;;
2662;SDS011;49701;48.072;7.800;2023-07-24T11:28:04;4.25;;;2.75;;
2662;SDS011;49701;48.072;7.800;2023-07-24T11:30:31;4.22;;;2.75;;
2662;SDS011;49701;48.072;7.800;2023-07-24T11:33:00;3.17;;;2.50;;
2662;SDS011;49701;48.072;7.800;2023-07-24T11:35:28;3.95;;;2.70;;
2662;SDS011;49701;48.072;7.800;2023-07-24T11:37:53;3.10;;;1.83;;
2662;SDS011;49701;48.072;7.800;2023-07-24T11:40:19;3.38;;;2.50;;
2662;SDS011;49701;48.072;7.800;2023-07-24T11:42:46;3.20;;;2.30;;
2662;SDS011;49701;48.072;7.800;2023-07-24T11:45:13;3.45;;;2.92;;
2662;SDS011;49701;48.072;7.800;2023-07-24T11:47:46;3.83;;;2.92;;
2662;SDS011;49701;48.072;7.800;2023-07-24T11:50:13;4.97;;;2.60;;
2662;SDS011;49701;48.072;7.800;2023-07-24T11:52:44;3.28;;;2.50;;
2662;SDS011;49701;48.072;7.800;2023-07-24T11:55:11;3.53;;;2.42;;
2662;SDS011;49701;48.072;7.800;2023-07-24T11:57:43;3.45;;;2.70;;
2662;SDS011;49701;48.072;7.800;2023-07-24T12:00:20;3.83;;;2.30;;
2662;SDS011;49701;48.072;7.800;2023-07-24T12:02:47;2.70;;;2.17;;
2662;SDS011;49701;48.072;7.800;2023-07-24T12:05:13;4.32;;;2.80;;
2662;SDS011;49701;48.072;7.800;2023-07-24T12:07:39;2.50;;;2.05;;
2662;SDS011;49701;48.072;7.800;2023-07-24T12:10:07;2.95;;;2.28;;
2662;SDS011;49701;48.072;7.800;2023-07-24T12:12:36;3.05;;;2.50;;
2662;SDS011;49701;48.072;7.800;2023-07-24T12:15:07;3.85;;;2.80;;
2662;SDS011;49701;48.072;7.800;2023-07-24T12:17:33;3.40;;;2.58;;
2662;SDS011;49701;48.072;7.800;2023-07-24T12:19:59;4.05;;;2.72;;
2662;SDS011;49701;48.072;7.800;2023-07-24T12:22:25;3.28;;;2.80;;
2662;SDS011;49701;48.072;7.800;2023-07-24T12:24:50;4.22;;;2.40;;
2662;SDS011;49701;48.072;7.800;2023-07-24T12:27:16;3.92;;;2.67;;
2662;SDS011;49701;48.072;7.800;2023-07-24T12:29:42;4.95;;;2.80;;
2662;SDS011;49701;48.072;7.800;2023-07-24T12:32:07;3.33;;;2.60;;
2662;SDS011;49701;48.072;7.800;2023-07-24T12:34:33;5.70;;;3.22;;
2662;SDS011;49701;48.072;7.800;2023-07-24T12:36:59;4.45;;;3.35;;
2662;SDS011;49701;48.072;7.800;2023-07-24T12:39:24;4.78;;;3.10;;
2662;SDS011;49701;48.072;7.800;2023-07-24T12:41:50;3.80;;;3.03;;
2662;SDS011;49701;48.072;7.800;2023-07-24T12:44:16;3.17;;;2.88;;
2662;SDS011;49701;48.072;7.800;2023-07-24T12:46:41;4.15;;;2.90;;
2662;SDS011;49701;48.072;7.800;2023-07-24T12:49:07;5.13;;;2.78;;
2662;SDS011;49701;48.072;7.800;2023-07-24T12:51:33;3.33;;;2.78;;
2662;SDS011;49701;48.072;7.800;2023-07-24T12:53:58;4.15;;;3.15;;
2662;SDS011;49701;48.072;7.800;2023-07-24T12:56:24;4.13;;;3.00;;
2662;SDS011;49701;48.072;7.800;2023-07-24T12:58:50;2.88;;;2.42;;
2662;SDS011;49701;48.072;7.800;2023-07-24T13:01:15;3.60;;;2.55;;
2662;SDS011;49701;48.072;7.800;2023-07-24T13:03:41;5.70;;;3.30;;
2662;SDS011;49701;48.072;7.800;2023-07-24T13:06:06;3.85;;;2.70;;
2662;SDS011;49701;48.072;7.800;2023-07-24T13:08:32;3.70;;;2.97;;
2662;SDS011;49701;48.072;7.800;2023-07-24T13:10:58;4.07;;;3.10;;
2662;SDS011;49701;48.072;7.800;2023-07-24T13:13:23;4.25;;;2.80;;
2662;SDS011;49701;48.072;7.800;2023-07-24T13:15:49;3.63;;;2.83;;
2662;SDS011;49701;48.072;7.800;2023-07-24T13:18:16;4.85;;;3.00;;
2662;SDS011;49701;48.072;7.800;2023-07-24T13:20:45;3.05;;;2.50;;
2662;SDS011;49701;48.072;7.800;2023-07-24T13:23:11;4.97;;;2.95;;
2662;SDS011;49701;48.072;7.800;2023-07-24T13:25:37;3.45;;;2.28;;
2662;SDS011;49701;48.072;7.800;2023-07-24T13:28:02;3.50;;;2.60;;
2662;SDS011;49701;48.072;7.800;2023-07-24T13:30:28;3.80;;;2.65;;
2662;SDS011;49701;48.072;7.800;2023-07-24T13:32:54;4.45;;;2.67;;
2662;SDS011;49701;48.072;7.800;2023-07-24T13:35:19;4.75;;;2.80;;
2662;SDS011;49701;48.072;7.800;2023-07-24T13:37:45;4.78;;;2.50;;
2662;SDS011;49701;48.072;7.800;2023-07-24T13:40:11;3.33;;;2.75;;
2662;SDS011;49701;48.072;7.800;2023-07-24T13:42:36;4.43;;;2.92;;
2662;SDS011;49701;48.072;7.800;2023-07-24T13:45:02;4.40;;;3.35;;
2662;SDS011;49701;48.072;7.800;2023-07-24T13:47:28;6.28;;;3.38;;
2662;SDS011;49701;48.072;7.800;2023-07-24T13:49:54;6.30;;;3.85;;
2662;SDS011;49701;48.072;7.800;2023-07-24T13:52:19;7.15;;;3.88;;
2662;SDS011;49701;48.072;7.800;2023-07-24T13:54:45;5.65;;;3.88;;
2662;SDS011;49701;48.072;7.800;2023-07-24T13:57:12;5.78;;;3.88;;
2662;SDS011;49701;48.072;7.800;2023-07-24T13:59:38;7.13;;;4.13;;
2662;SDS011;49701;48.072;7.800;2023-07-24T14:02:05;5.40;;;3.95;;
2662;SDS011;49701;48.072;7.800;2023-07-24T14:04:31;8.02;;;4.70;;
2662;SDS011;49701;48.072;7.800;2023-07-24T14:06:57;7.57;;;4.00;;
2662;SDS011;49701;48.072;7.800;2023-07-24T14:09:22;8.00;;;4.47;;
2662;SDS011;49701;48.072;7.800;2023-07-24T14:11:48;7.07;;;4.03;;
2662;SDS011;49701;48.072;7.800;2023-07-24T14:14:15;6.85;;;4.13;;
2662;SDS011;49701;48.072;7.800;2023-07-24T14:16:43;6.53;;;4.28;;
2662;SDS011;49701;48.072;7.800;2023-07-24T14:19:09;7.38;;;4.75;;
2662;SDS011;49701;48.072;7.800;2023-07-24T14:21:34;7.00;;;4.65;;
2662;SDS011;49701;48.072;7.800;2023-07-24T14:24:00;6.53;;;4.40;;
2662;SDS011;49701;48.072;7.800;2023-07-24T14:26:26;6.43;;;4.82;;
2662;SDS011;49701;48.072;7.800;2023-07-24T14:28:52;6.20;;;4.18;;
2662;SDS011;49701;48.072;7.800;2023-07-24T14:31:17;5.85;;;4.05;;
2662;SDS011;49701;48.072;7.800;2023-07-24T14:33:43;8.02;;;4.53;;
2662;SDS011;49701;48.072;7.800;2023-07-24T14:36:08;6.38;;;4.43;;
2662;SDS011;49701;48.072;7.800;2023-07-24T14:38:34;6.68;;;4.57;;
2662;SDS011;49701;48.072;7.800;2023-07-24T14:41:00;8.13;;;4.38;;
2662;SDS011;49701;48.072;7.800;2023-07-24T14:43:25;5.55;;;3.85;;
2662;SDS011;49701;48.072;7.800;2023-07-24T14:45:51;5.68;;;3.97;;
2662;SDS011;49701;48.072;7.800;2023-07-24T14:48:17;6.40;;;3.80;;
2662;SDS011;49701;48.072;7.800;2023-07-24T14:50:42;4.85;;;3.92;;
2662;SDS011;49701;48.072;7.800;2023-07-24T14:53:08;5.68;;;4.30;;
2662;SDS011;49701;48.072;7.800;2023-07-24T14:55:34;4.82;;;3.95;;
2662;SDS011;49701;48.072;7.800;2023-07-24T14:57:59;5.65;;;3.88;;
2662;SDS011;49701;48.072;7.800;2023-07-24T15:00:25;5.43;;;4.20;;
2662;SDS011;49701;48.072;7.800;2023-07-24T15:02:50;5.78;;;4.22;;
2662;SDS011;49701;48.072;7.800;2023-07-24T15:05:16;6.63;;;4.18;;
2662;SDS011;49701;48.072;7.800;2023-07-24T15:07:42;6.38;;;4.15;;
2662;SDS011;49701;48.072;7.800;2023-07-24T15:10:07;6.85;;;4.15;;
2662;SDS011;49701;48.072;7.800;2023-07-24T15:12:33;6.30;;;3.97;;
2662;SDS011;49701;48.072;7.800;2023-07-24T15:14:59;4.22;;;3.13;;
2662;SDS011;49701;48.072;7.800;2023-07-24T15:17:24;6.40;;;4.03;;
2662;SDS011;49701;48.072;7.800;2023-07-24T15:19:50;5.63;;;3.38;;
2662;SDS011;49701;48.072;7.800;2023-07-24T15:22:16;5.30;;;4.05;;
2662;SDS011;49701;48.072;7.800;2023-07-24T15:24:41;7.45;;;3.95;;